Wabaningo, Michigan
Current Conditions -  °F | °C
As of 3:55 AM on Wednesday 22 Oct 2014 (Local Time) from KMKG Reporting Station
Clear Clear  
Wind Chill: 35°   Ceiling: Unl
Heat Index: 35°   Visibility: 10mi
Dew Point: 29°   Wind: 3mph
Humidity: 78%   Direction: 80°E
Pressure: 30.31"   Gusts: NA
Location:  43.37°N, 86.42°W
Report Text: KMKG 220755Z AUTO 08003KT 10SM CLR 02/M02 A3031 RMK AO2 SLP267 T00171017
Loading
Personal Weather Stations






























Interactive Weather Map
Tropical Storm Tracking
New forecast layout! Learn more

10-Day Weather Forecast

Advertisements
Track Severe Weather on mobile